Time;durP1;ratioP1;P1;durP2;ratioP2;P2;SDS_P1;SDS_P2;PMS_P1;PMS_P2;Temp;Humidity;BMP_temperature;BMP_pressure;BME280_temperature;BME280_humidity;BME280_pressure;Samples;Min_cycle;Max_cycle;Signal;HPM_P1;HPM_P2
2022/12/22 03:28:05;;;;;;;;;;;;;;;;;;4949919;28;1355;-72
2022/12/22 03:30:31;;;;;;;;;;;;;;;;;;4951158;28;1165;-73
2022/12/22 03:32:59;;;;;;;;;;;;;;;;;;4967803;28;1102;-73
2022/12/22 03:35:26;;;;;;;;;;;;;;;;;;4968177;28;1259;-72
2022/12/22 03:37:52;;;;;;;;;;;;;;;;;;4968752;28;1141;-73
2022/12/22 03:40:18;;;;;;;;;;;;;;;;;;4952451;28;1283;-73
2022/12/22 03:48:14;;;;;;;;;;;;;;;;;;4949815;28;1349;-74
2022/12/22 03:50:40;;;;;;;;;;;;;;;;;;4966653;28;1153;-75
2022/12/22 03:53:07;;;;;;;;;;;;;;;;;;4951522;28;1148;-74
2022/12/22 03:55:33;;;;;;;;;;;;;;;;;;4951271;29;1175;-74
2022/12/22 03:57:59;;;;;;;;;;;;;;;;;;4951439;29;1570;-75
2022/12/22 04:00:26;;;;;;;;;;;;;;;;;;4949611;28;1417;-74
2022/12/22 04:02:52;;;;;;;;;;;;;;;;;;4948820;29;1112;-75
2022/12/22 04:05:19;;;;;;;;;;;;;;;;;;4951341;28;1998;-74
2022/12/22 04:07:46;;;;;;;;;;;;;;;;;;4967943;28;1168;-75
2022/12/22 04:12:56;;;;;;;;;;;;;;;;;;4947791;29;1321;-75
2022/12/22 04:15:23;;;;;;;;;;;;;;;;;;4938440;29;1189;-74
2022/12/22 04:17:49;;;;;;;;;;;;;;;;;;4946412;29;1448;-74
2022/12/22 04:20:15;;;;;;;;;;;;;;;;;;4930342;29;1455;-75
2022/12/22 04:22:43;;;;;;;;;;;;;;;;;;4930819;29;1123;-75
2022/12/22 04:25:09;;;;;;;;;;;;;;;;;;4945696;29;1927;-73
2022/12/22 04:27:36;;;;;;;;;;;;;;;;;;4929721;29;1193;-75
2022/12/22 04:30:02;;;;;;;;;;;;;;;;;;4929543;29;1509;-74
2022/12/22 04:32:28;;;;;;;;;;;;;;;;;;4928125;29;1182;-75
2022/12/22 04:34:54;;;;;;;;;;;;;;;;;;4929214;29;1355;-74
2022/12/22 04:37:21;;;;;;;;;;;;;;;;;;4932056;29;942;-75
2022/12/22 04:39:48;;;;;;;;;;;;;;;;;;4932745;29;1326;-73
2022/12/22 04:42:15;;;;;;;;;;;;;;;;;;4948102;29;1142;-73
2022/12/22 04:44:41;;;;;;;;;;;;;;;;;;4955192;28;1427;-73
2022/12/22 04:47:07;;;;;;;;;;;;;;;;;;4943545;29;1914;-73
2022/12/22 04:49:34;;;;;;;;;;;;;;;;;;4952636;28;1489;-73
2022/12/22 04:52:00;;;;;;;;;;;;;;;;;;4951545;29;1393;-73
2022/12/22 04:54:26;;;;;;;;;;;;;;;;;;4952343;29;1097;-72
2022/12/22 04:56:54;;;;;;;;;;;;;;;;;;4941303;29;1203;-74
2022/12/22 04:59:20;;;;;;;;;;;;;;;;;;4934828;29;1311;-73
2022/12/22 05:01:46;;;;;;;;;;;;;;;;;;4936803;29;1508;-72
2022/12/22 05:04:13;;;;;;;;;;;;;;;;;;4933731;29;1607;-73
2022/12/22 05:06:39;;;;;;;;;;;;;;;;;;4941162;29;1974;-74
2022/12/22 05:09:05;;;;;;;;;;;;;;;;;;4954276;28;1317;-74
2022/12/22 05:11:31;;;;;;;;;;;;;;;;;;4937092;29;1405;-73
2022/12/22 05:13:59;;;;;;;;;;;;;;;;;;4937146;29;1529;-73
2022/12/22 05:16:25;;;;;;;;;;;;;;;;;;4939698;29;1463;-74
2022/12/22 05:18:52;;;;;;;;;;;;;;;;;;4943728;29;1468;-73
2022/12/22 05:21:19;;;;;;;;;;;;;;;;;;4945890;28;1429;-73
2022/12/22 05:23:46;;;;;;;;;;;;;;;;;;4945046;28;1374;-71
2022/12/22 05:26:13;;;;;;;;;;;;;;;;;;4871401;29;2008;-71
2022/12/22 05:28:40;;;;;;;;;;;;;;;;;;4862815;29;1398;-73
2022/12/22 05:31:08;;;;;;;;;;;;;;;;;;4934157;29;1519;-73
2022/12/22 05:33:35;;;;;;;;;;;;;;;;;;4843084;28;1462;-75
2022/12/22 05:36:07;;;;;;;;;;;;;;;;;;4819687;29;2061;-74
2022/12/22 05:38:34;;;;;;;;;;;;;;;;;;4824376;29;1358;-73
2022/12/22 05:41:01;;;;;;;;;;;;;;;;;;4825259;29;1030;-74
2022/12/22 05:43:28;;;;;;;;;;;;;;;;;;4827928;29;1152;-75
2022/12/22 05:45:57;;;;;;;;;;;;;;;;;;4835980;29;1950;-73
2022/12/22 05:48:26;;;;;;;;;;;;;;;;;;4840165;28;1476;-75
2022/12/22 05:50:53;;;;;;;;;;;;;;;;;;4844674;28;1042;-74
2022/12/22 05:53:21;;;;;;;;;;;;;;;;;;4860848;28;1269;-74
2022/12/22 05:55:48;;;;;;;;;;;;;;;;;;4860932;28;1160;-74
2022/12/22 05:58:15;;;;;;;;;;;;;;;;;;4822441;29;1456;-72
2022/12/22 06:00:41;;;;;;;;;;;;;;;;;;4834254;29;1130;-74
2022/12/22 06:03:08;;;;;;;;;;;;;;;;;;4821619;29;1004;-74
2022/12/22 06:05:37;;;;;;;;;;;;;;;;;;4837177;29;1932;-74
2022/12/22 06:08:04;;;;;;;;;;;;;;;;;;4867488;28;1391;-73
2022/12/22 06:10:33;;;;;;;;;;;;;;;;;;4925721;29;1482;-72
2022/12/22 06:13:00;;;;;;;;;;;;;;;;;;4939469;29;1199;-72
2022/12/22 06:15:26;;;;;;;;;;;;;;;;;;4943787;29;1013;-71
2022/12/22 06:17:52;;;;;;;;;;;;;;;;;;4933317;29;1442;-72
2022/12/22 06:20:18;;;;;;;;;;;;;;;;;;4942647;28;1413;-72
2022/12/22 06:22:46;;;;;;;;;;;;;;;;;;4948129;29;1199;-72
2022/12/22 06:25:12;;;;;;;;;;;;;;;;;;4948901;29;1410;-72
2022/12/22 06:27:38;;;;;;;;;;;;;;;;;;4923121;28;1978;-72
2022/12/22 06:30:05;;;;;;;;;;;;;;;;;;4937166;28;1486;-71
2022/12/22 06:32:31;;;;;;;;;;;;;;;;;;4927604;29;1419;-71
2022/12/22 06:34:57;;;;;;;;;;;;;;;;;;4929424;29;1217;-72
2022/12/22 06:37:24;;;;;;;;;;;;;;;;;;4934059;29;1485;-73
2022/12/22 06:39:51;;;;;;;;;;;;;;;;;;4950623;28;1386;-73
2022/12/22 06:45:01;;;;;;;;;;;;;;;;;;4943845;29;1386;-72
2022/12/22 06:47:27;;;;;;;;;;;;;;;;;;4938080;29;1880;-73
2022/12/22 06:49:53;;;;;;;;;;;;;;;;;;4937986;28;1407;-72
2022/12/22 06:52:20;;;;;;;;;;;;;;;;;;4934353;29;1069;-72
2022/12/22 06:54:46;;;;;;;;;;;;;;;;;;4942997;29;1266;-72
2022/12/22 06:57:14;;;;;;;;;;;;;;;;;;4934993;29;1155;-72
2022/12/22 07:02:18;;;;;;;;;;;;;;;;;;4938784;28;1477;-70
2022/12/22 07:04:44;;;;;;;;;;;;;;;;;;4920903;29;1075;-70
2022/12/22 07:07:11;;;;;;;;;;;;;;;;;;4917071;29;1919;-70
2022/12/22 07:09:37;;;;;;;;;;;;;;;;;;4917259;29;1256;-73
2022/12/22 07:12:03;;;;;;;;;;;;;;;;;;4911239;29;1347;-73
2022/12/22 07:14:31;;;;;;;;;;;;;;;;;;4911285;29;1472;-73
2022/12/22 07:16:57;;;;;;;;;;;;;;;;;;4929396;29;1171;-73
2022/12/22 07:19:23;;;;;;;;;;;;;;;;;;4926721;29;1484;-71
2022/12/22 07:21:50;;;;;;;;;;;;;;;;;;4911962;29;1426;-73
2022/12/22 07:24:21;;;;;;;;;;;;;;;;;;4913818;29;1289;-71
2022/12/22 07:26:48;;;;;;;;;;;;;;;;;;4909745;29;1912;-72
2022/12/22 07:29:14;;;;;;;;;;;;;;;;;;4911063;29;1210;-71
2022/12/22 07:31:41;;;;;;;;;;;;;;;;;;4905778;29;1464;-72
2022/12/22 07:34:07;;;;;;;;;;;;;;;;;;4916990;29;1782;-72
2022/12/22 07:36:34;;;;;;;;;;;;;;;;;;4912246;29;1109;-71
2022/12/22 07:39:01;;;;;;;;;;;;;;;;;;4912892;29;1828;-72
2022/12/22 07:44:19;;;;;;;;;;;;;;;;;;4908340;29;1606;-73
2022/12/22 07:46:47;;;;;;;;;;;;;;;;;;4913314;29;1976;-74
2022/12/22 07:51:57;;;;;;;;;;;;;;;;;;4917417;29;1824;-74
2022/12/22 07:54:23;;;;;;;;;;;;;;;;;;4914763;29;1800;-72
2022/12/22 07:56:49;;;;;;;;;;;;;;;;;;4918139;29;1581;-71
2022/12/22 07:59:16;;;;;;;;;;;;;;;;;;4922025;29;1483;-71
2022/12/22 08:01:42;;;;;;;;;;;;;;;;;;4918845;29;1417;-70
2022/12/22 08:04:10;;;;;;;;;;;;;;;;;;4921115;29;1110;-71
2022/12/22 08:06:36;;;;;;;;;;;;;;;;;;4916725;29;1980;-72
2022/12/22 08:09:02;;;;;;;;;;;;;;;;;;4911509;29;1612;-71
2022/12/22 08:11:28;;;;;;;;;;;;;;;;;;4912195;29;1416;-73
2022/12/22 08:13:55;;;;;;;;;;;;;;;;;;4911621;29;2480;-73
2022/12/22 08:16:21;;;;;;;;;;;;;;;;;;4909483;29;1499;-70
2022/12/22 08:18:48;;;;;;;;;;;;;;;;;;4910633;29;1211;-72
2022/12/22 08:21:15;;;;;;;;;;;;;;;;;;4915111;29;1780;-72
2022/12/22 08:23:41;;;;;;;;;;;;;;;;;;4914049;29;1459;-74
2022/12/22 08:26:09;;;;;;;;;;;;;;;;;;4924087;29;1287;-74
2022/12/22 08:28:36;;;;;;;;;;;;;;;;;;4894432;29;1918;-74
2022/12/22 08:31:03;;;;;;;;;;;;;;;;;;4914921;29;1804;-74
2022/12/22 08:33:29;;;;;;;;;;;;;;;;;;4913684;29;1120;-75
2022/12/22 08:35:55;;;;;;;;;;;;;;;;;;4927648;29;1787;-74
2022/12/22 08:38:23;;;;;;;;;;;;;;;;;;4929208;29;1464;-75
2022/12/22 08:40:49;;;;;;;;;;;;;;;;;;4915910;29;1870;-73
2022/12/22 08:43:15;;;;;;;;;;;;;;;;;;4913511;29;1287;-74
2022/12/22 08:45:42;;;;;;;;;;;;;;;;;;4916027;29;1777;-72
2022/12/22 08:48:08;;;;;;;;;;;;;;;;;;4919550;29;1922;-72
2022/12/22 08:50:35;;;;;;;;;;;;;;;;;;4912515;29;1565;-73
2022/12/22 08:53:01;;;;;;;;;;;;;;;;;;4913630;29;1766;-72
2022/12/22 08:55:29;;;;;;;;;;;;;;;;;;4913488;29;1752;-73
2022/12/22 08:57:55;;;;;;;;;;;;;;;;;;4914494;29;1863;-72
2022/12/22 09:00:22;;;;;;;;;;;;;;;;;;4916922;29;1658;-72
2022/12/22 09:02:48;;;;;;;;;;;;;;;;;;4920671;29;1605;-74
2022/12/22 09:05:14;;;;;;;;;;;;;;;;;;4918872;29;1455;-72
2022/12/22 09:07:40;;;;;;;;;;;;;;;;;;4912949;29;1907;-71
2022/12/22 09:10:07;;;;;;;;;;;;;;;;;;4913615;29;1307;-73
2022/12/22 09:12:35;;;;;;;;;;;;;;;;;;4913660;29;1105;-72
2022/12/22 09:15:01;;;;;;;;;;;;;;;;;;4927214;29;1771;-73
2022/12/22 09:17:27;;;;;;;;;;;;;;;;;;4913648;29;1625;-74
2022/12/22 09:19:53;;;;;;;;;;;;;;;;;;4910346;29;1803;-72
2022/12/22 09:22:20;;;;;;;;;;;;;;;;;;4913300;29;1079;-72
2022/12/22 09:24:46;;;;;;;;;;;;;;;;;;4922438;29;1772;-74
2022/12/22 09:27:12;;;;;;;;;;;;;;;;;;4923072;29;1918;-74
2022/12/22 09:29:40;;;;;;;;;;;;;;;;;;4930093;29;1136;-74
2022/12/22 09:32:06;;;;;;;;;;;;;;;;;;4919030;29;1519;-73
2022/12/22 09:34:32;;;;;;;;;;;;;;;;;;4915230;29;1057;-75
2022/12/22 09:36:58;;;;;;;;;;;;;;;;;;4914044;29;1153;-75
2022/12/22 09:39:25;;;;;;;;;;;;;;;;;;4914214;29;1124;-74
2022/12/22 09:41:51;;;;;;;;;;;;;;;;;;4914508;29;1784;-75
2022/12/22 09:44:21;;;;;;;;;;;;;;;;;;4914257;29;1606;-74
2022/12/22 09:46:48;;;;;;;;;;;;;;;;;;4914219;29;1915;-72
2022/12/22 09:49:15;;;;;;;;;;;;;;;;;;4918394;29;1768;-71
2022/12/22 09:51:42;;;;;;;;;;;;;;;;;;4911591;29;1756;-71
2022/12/22 09:54:09;;;;;;;;;;;;;;;;;;4919273;29;1668;-74
2022/12/22 09:56:35;;;;;;;;;;;;;;;;;;4915586;29;1371;-74
2022/12/22 09:59:02;;;;;;;;;;;;;;;;;;4931148;29;1792;-75
2022/12/22 10:01:31;;;;;;;;;;;;;;;;;;4915481;29;1304;-71
2022/12/22 10:04:00;;;;;;;;;;;;;;;;;;4926369;29;1613;-70
2022/12/22 10:06:29;;;;;;;;;;;;;;;;;;4916976;29;1446;-71
2022/12/22 10:08:55;;;;;;;;;;;;;;;;;;4930604;29;1927;-71
2022/12/22 10:11:21;;;;;;;;;;;;;;;;;;4915416;29;1448;-71
2022/12/22 10:13:47;;;;;;;;;;;;;;;;;;4916359;29;1173;-70
2022/12/22 10:16:18;;;;;;;;;;;;;;;;;;4899281;29;1192;-72
2022/12/22 10:18:54;;;;;;;;;;;;;;;;;;4909543;29;1789;-72
2022/12/22 10:21:21;;;;;;;;;;;;;;;;;;4906822;29;1387;-69
2022/12/22 10:23:48;;;;;;;;;;;;;;;;;;4916423;29;792;-72
2022/12/22 10:26:15;;;;;;;;;;;;;;;;;;4916679;29;1105;-74
2022/12/22 10:28:43;;;;;;;;;;;;;;;;;;4922821;29;1984;-70
2022/12/22 10:31:11;;;;;;;;;;;;;;;;;;4917066;29;1610;-71
2022/12/22 10:33:38;;;;;;;;;;;;;;;;;;4914943;29;1658;-71
2022/12/22 10:36:04;;;;;;;;;;;;;;;;;;4921321;29;1566;-71
2022/12/22 10:38:33;;;;;;;;;;;;;;;;;;4916483;29;1887;-70
2022/12/22 10:41:01;;;;;;;;;;;;;;;;;;4918997;29;1895;-70
2022/12/22 10:43:28;;;;;;;;;;;;;;;;;;4945283;29;1582;-71
2022/12/22 10:45:55;;;;;;;;;;;;;;;;;;4919811;29;1631;-72
2022/12/22 10:48:27;;;;;;;;;;;;;;;;;;4918828;29;1930;-72
2022/12/22 10:50:54;;;;;;;;;;;;;;;;;;4918211;29;1550;-72
2022/12/22 10:53:20;;;;;;;;;;;;;;;;;;4914838;29;1137;-71
2022/12/22 10:55:48;;;;;;;;;;;;;;;;;;4915390;29;1406;-72
2022/12/22 10:58:15;;;;;;;;;;;;;;;;;;4914019;29;943;-71
2022/12/22 11:00:43;;;;;;;;;;;;;;;;;;4932446;28;1508;-71
2022/12/22 11:03:13;;;;;;;;;;;;;;;;;;4918561;29;1105;-71
2022/12/22 11:05:39;;;;;;;;;;;;;;;;;;4915789;29;1069;-72
2022/12/22 11:08:11;;;;;;;;;;;;;;;;;;4915934;29;1973;-71
2022/12/22 11:10:38;;;;;;;;;;;;;;;;;;4918029;29;1913;-74
2022/12/22 11:13:12;;;;;;;;;;;;;;;;;;4913116;29;1602;-73
2022/12/22 11:15:39;;;;;;;;;;;;;;;;;;4915998;29;2077;-73
2022/12/22 11:18:08;;;;;;;;;;;;;;;;;;4915058;29;1897;-72
2022/12/22 11:20:38;;;;;;;;;;;;;;;;;;4917683;29;1323;-74
2022/12/22 11:23:06;;;;;;;;;;;;;;;;;;4939827;28;1538;-73
2022/12/22 11:25:35;;;;;;;;;;;;;;;;;;4904959;29;1298;-72
2022/12/22 11:28:07;;;;;;;;;;;;;;;;;;4907116;29;1939;-73
2022/12/22 11:30:36;;;;;;;;;;;;;;;;;;4909094;29;1422;-73
2022/12/22 11:33:17;;;;;;;;;;;;;;;;;;4913740;29;1066;-73
2022/12/22 11:35:47;;;;;;;;;;;;;;;;;;4909771;29;1292;-74
2022/12/22 11:38:15;;;;;;;;;;;;;;;;;;4915049;29;1082;-73
2022/12/22 11:40:44;;;;;;;;;;;;;;;;;;4914164;29;1342;-72
2022/12/22 11:43:15;;;;;;;;;;;;;;;;;;4914604;29;1121;-73
2022/12/22 11:45:47;;;;;;;;;;;;;;;;;;4929460;29;951;-74
2022/12/22 11:48:24;;;;;;;;;;;;;;;;;;4914560;29;1978;-73
2022/12/22 11:50:50;;;;;;;;;;;;;;;;;;4914072;29;1484;-73
2022/12/22 11:53:21;;;;;;;;;;;;;;;;;;4915175;29;1385;-72
2022/12/22 11:55:52;;;;;;;;;;;;;;;;;;4929496;29;1192;-72
2022/12/22 11:58:23;;;;;;;;;;;;;;;;;;4917031;29;1439;-71
2022/12/22 12:00:51;;;;;;;;;;;;;;;;;;4914822;29;1657;-70
2022/12/22 12:03:34;;;;;;;;;;;;;;;;;;4913104;29;1411;-71
2022/12/22 12:06:04;;;;;;;;;;;;;;;;;;4928756;29;1202;-71
2022/12/22 12:08:33;;;;;;;;;;;;;;;;;;4922046;29;1972;-72
2022/12/22 12:11:02;;;;;;;;;;;;;;;;;;4916379;29;1492;-71
2022/12/22 12:13:29;;;;;;;;;;;;;;;;;;4913838;29;1192;-73
2022/12/22 12:15:58;;;;;;;;;;;;;;;;;;4919468;29;1385;-72
2022/12/22 12:18:29;;;;;;;;;;;;;;;;;;4914302;29;1556;-71
2022/12/22 12:21:01;;;;;;;;;;;;;;;;;;4929378;29;1412;-71
2022/12/22 12:23:35;;;;;;;;;;;;;;;;;;4928276;29;1122;-71
2022/12/22 12:26:03;;;;;;;;;;;;;;;;;;4916679;29;1446;-73
2022/12/22 12:28:31;;;;;;;;;;;;;;;;;;4926707;29;1972;-71
2022/12/22 12:30:59;;;;;;;;;;;;;;;;;;4918635;29;1508;-72
2022/12/22 12:33:30;;;;;;;;;;;;;;;;;;4928227;29;1420;-71
2022/12/22 12:35:58;;;;;;;;;;;;;;;;;;4914021;29;1466;-70
2022/12/22 12:38:26;;;;;;;;;;;;;;;;;;4928603;29;1496;-71
2022/12/22 12:40:53;;;;;;;;;;;;;;;;;;4917663;29;1701;-71
2022/12/22 12:43:19;;;;;;;;;;;;;;;;;;4918584;29;1545;-71
2022/12/22 12:45:47;;;;;;;;;;;;;;;;;;4914125;29;1533;-73
2022/12/22 12:48:31;;;;;;;;;;;;;;;;;;4914210;29;1978;-73
2022/12/22 12:50:59;;;;;;;;;;;;;;;;;;4914828;29;1852;-70
2022/12/22 12:53:25;;;;;;;;;;;;;;;;;;4914897;29;1847;-72
2022/12/22 12:55:56;;;;;;;;;;;;;;;;;;4914724;29;1226;-72
2022/12/22 12:58:41;;;;;;;;;;;;;;;;;;4908970;29;1184;-72
2022/12/22 13:01:09;;;;;;;;;;;;;;;;;;4930494;29;1881;-73
2022/12/22 13:03:36;;;;;;;;;;;;;;;;;;4943486;23;1889;-77
2022/12/22 13:06:04;;;;;;;;;;;;;;;;;;4954662;28;1118;-75
2022/12/22 13:08:31;;;;;;;;;;;;;;;;;;4954403;28;1997;-75
2022/12/22 13:11:21;;;;;;;;;;;;;;;;;;4954323;28;1675;-73
2022/12/22 13:13:48;;;;;;;;;;;;;;;;;;4967108;28;1471;-73
2022/12/22 13:16:22;;;;;;;;;;;;;;;;;;4958692;28;1849;-74
2022/12/22 13:18:48;;;;;;;;;;;;;;;;;;4955142;28;1240;-74
2022/12/22 13:21:21;;;;;;;;;;;;;;;;;;4963378;28;1452;-73
2022/12/22 13:23:49;;;;;;;;;;;;;;;;;;4956166;28;1271;-77
2022/12/22 13:26:16;;;;;;;;;;;;;;;;;;4953868;28;1762;-75
2022/12/22 13:28:42;;;;;;;;;;;;;;;;;;4950232;28;1911;-72
2022/12/22 13:31:12;;;;;;;;;;;;;;;;;;4962424;28;1485;-75
2022/12/22 13:33:39;;;;;;;;;;;;;;;;;;4954680;28;1767;-76
2022/12/22 13:36:05;;;;;;;;;;;;;;;;;;4974678;28;1121;-76
2022/12/22 13:38:33;;;;;;;;;;;;;;;;;;4958847;28;1261;-76
2022/12/22 13:41:00;;;;;;;;;;;;;;;;;;4955780;28;977;-73
2022/12/22 13:43:26;;;;;;;;;;;;;;;;;;4958817;28;1609;-75
2022/12/22 13:45:53;;;;;;;;;;;;;;;;;;4966944;28;1556;-75
2022/12/22 13:48:20;;;;;;;;;;;;;;;;;;4971984;28;1974;-74
2022/12/22 13:50:47;;;;;;;;;;;;;;;;;;4963886;28;1238;-75
2022/12/22 13:53:15;;;;;;;;;;;;;;;;;;4974253;28;1194;-75
2022/12/22 13:55:42;;;;;;;;;;;;;;;;;;4975236;28;1406;-74
2022/12/22 13:58:15;;;;;;;;;;;;;;;;;;4952437;28;1935;-76
2022/12/22 14:00:41;;;;;;;;;;;;;;;;;;4955313;28;1116;-76
2022/12/22 14:03:12;;;;;;;;;;;;;;;;;;4961673;28;1564;-75
2022/12/22 14:05:38;;;;;;;;;;;;;;;;;;4963092;28;1358;-74
2022/12/22 14:08:05;;;;;;;;;;;;;;;;;;4955884;28;1060;-75
2022/12/22 14:10:32;;;;;;;;;;;;;;;;;;4954108;28;1919;-75
2022/12/22 14:13:00;;;;;;;;;;;;;;;;;;4954079;28;1779;-77
2022/12/22 14:15:26;;;;;;;;;;;;;;;;;;4949623;28;1505;-76
2022/12/22 14:17:53;;;;;;;;;;;;;;;;;;4965843;28;1167;-75
2022/12/22 14:20:19;;;;;;;;;;;;;;;;;;4965463;28;1861;-75
2022/12/22 14:22:46;;;;;;;;;;;;;;;;;;4953868;28;1532;-76
2022/12/22 14:25:13;;;;;;;;;;;;;;;;;;4959380;28;1665;-73
2022/12/22 14:27:40;;;;;;;;;;;;;;;;;;4957250;28;1782;-73
2022/12/22 14:30:15;;;;;;;;;;;;;;;;;;4937012;28;1914;-74
2022/12/22 14:32:41;;;;;;;;;;;;;;;;;;4948870;28;1604;-72
2022/12/22 14:35:22;;;;;;;;;;;;;;;;;;4956809;28;1687;-76
2022/12/22 14:37:49;;;;;;;;;;;;;;;;;;4954777;28;1767;-74
2022/12/22 14:40:28;;;;;;;;;;;;;;;;;;4970242;28;1108;-75
2022/12/22 14:42:54;;;;;;;;;;;;;;;;;;4960497;28;1103;-72
2022/12/22 14:45:22;;;;;;;;;;;;;;;;;;4947458;28;1701;-76
2022/12/22 14:47:48;;;;;;;;;;;;;;;;;;4951165;28;1486;-75
2022/12/22 14:50:16;;;;;;;;;;;;;;;;;;4951568;28;1911;-75
2022/12/22 14:52:43;;;;;;;;;;;;;;;;;;4952960;29;1386;-76
2022/12/22 14:55:24;;;;;;;;;;;;;;;;;;4954152;28;1377;-76
2022/12/22 14:57:51;;;;;;;;;;;;;;;;;;4947883;29;1713;-77
2022/12/22 15:00:28;;;;;;;;;;;;;;;;;;4960117;28;1822;-75
2022/12/22 15:02:55;;;;;;;;;;;;;;;;;;4947622;28;2218;-77
2022/12/22 15:05:24;;;;;;;;;;;;;;;;;;4965183;28;1326;-75
2022/12/22 15:07:51;;;;;;;;;;;;;;;;;;4957237;28;1790;-75
2022/12/22 15:10:18;;;;;;;;;;;;;;;;;;4964288;28;1974;-75
2022/12/22 15:12:44;;;;;;;;;;;;;;;;;;4953524;28;1769;-73
2022/12/22 15:15:14;;;;;;;;;;;;;;;;;;4954959;28;1327;-75
2022/12/22 15:17:42;;;;;;;;;;;;;;;;;;4954273;29;934;-75
2022/12/22 15:20:09;;;;;;;;;;;;;;;;;;4953397;28;1849;-75
2022/12/22 15:22:36;;;;;;;;;;;;;;;;;;4966794;28;1596;-75
2022/12/22 15:25:02;;;;;;;;;;;;;;;;;;4954407;28;1464;-75
2022/12/22 15:27:29;;;;;;;;;;;;;;;;;;4955159;28;908;-75
2022/12/22 15:29:55;;;;;;;;;;;;;;;;;;4959916;28;1926;-75
2022/12/22 15:32:21;;;;;;;;;;;;;;;;;;4952334;28;1612;-75
2022/12/22 15:34:49;;;;;;;;;;;;;;;;;;4949665;28;1433;-75
2022/12/22 15:37:15;;;;;;;;;;;;;;;;;;4944891;28;1434;-75
2022/12/22 15:39:41;;;;;;;;;;;;;;;;;;4959703;28;1241;-74
2022/12/22 15:42:07;;;;;;;;;;;;;;;;;;4955841;28;1233;-72
2022/12/22 15:44:33;;;;;;;;;;;;;;;;;;4948645;28;1588;-74
2022/12/22 15:47:00;;;;;;;;;;;;;;;;;;4952058;28;1480;-75
2022/12/22 15:49:26;;;;;;;;;;;;;;;;;;4951147;28;1931;-75
2022/12/22 15:51:54;;;;;;;;;;;;;;;;;;4958435;28;1654;-77
2022/12/22 15:54:20;;;;;;;;;;;;;;;;;;4961146;28;1416;-76
2022/12/22 15:56:46;;;;;;;;;;;;;;;;;;4952946;28;1340;-76
2022/12/22 15:59:14;;;;;;;;;;;;;;;;;;4953587;28;1135;-77
2022/12/22 16:01:40;;;;;;;;;;;;;;;;;;4950498;28;1696;-77
2022/12/22 16:04:07;;;;;;;;;;;;;;;;;;4961709;28;1429;-73
2022/12/22 16:06:33;;;;;;;;;;;;;;;;;;4940548;28;1297;-76
2022/12/22 16:09:00;;;;;;;;;;;;;;;;;;4940255;28;1910;-76
2022/12/22 16:11:26;;;;;;;;;;;;;;;;;;4945074;28;1571;-75
2022/12/22 16:13:53;;;;;;;;;;;;;;;;;;4951490;28;1501;-76
2022/12/22 16:16:19;;;;;;;;;;;;;;;;;;4961848;28;1191;-76
2022/12/22 16:18:45;;;;;;;;;;;;;;;;;;4958864;28;1647;-74
2022/12/22 16:21:13;;;;;;;;;;;;;;;;;;4953782;28;1657;-72
2022/12/22 16:23:40;;;;;;;;;;;;;;;;;;4960580;28;1624;-75
2022/12/22 16:26:09;;;;;;;;;;;;;;;;;;4957540;28;1718;-74
2022/12/22 16:28:35;;;;;;;;;;;;;;;;;;4950857;28;1268;-75
2022/12/22 16:31:02;;;;;;;;;;;;;;;;;;4952395;28;1915;-74
2022/12/22 16:33:28;;;;;;;;;;;;;;;;;;4950584;28;2389;-75
2022/12/22 16:35:54;;;;;;;;;;;;;;;;;;4956216;28;1189;-75
2022/12/22 16:38:20;;;;;;;;;;;;;;;;;;4947072;29;1321;-74
2022/12/22 16:40:47;;;;;;;;;;;;;;;;;;4951695;28;1484;-74
2022/12/22 16:43:16;;;;;;;;;;;;;;;;;;4953260;28;1319;-74
2022/12/22 16:45:43;;;;;;;;;;;;;;;;;;4956422;28;1291;-74
2022/12/22 16:48:10;;;;;;;;;;;;;;;;;;4974495;28;1101;-74
2022/12/22 16:50:36;;;;;;;;;;;;;;;;;;4958857;28;1956;-75
2022/12/22 16:53:03;;;;;;;;;;;;;;;;;;4964091;28;1414;-77
2022/12/22 16:55:29;;;;;;;;;;;;;;;;;;4965958;28;1672;-79
2022/12/22 16:57:56;;;;;;;;;;;;;;;;;;4954147;28;1517;-76
2022/12/22 17:00:25;;;;;;;;;;;;;;;;;;4946711;28;1272;-75
2022/12/22 17:02:53;;;;;;;;;;;;;;;;;;4942462;28;1729;-78
2022/12/22 17:05:27;;;;;;;;;;;;;;;;;;4859851;28;1581;-77
2022/12/22 17:07:54;;;;;;;;;;;;;;;;;;4839492;29;1162;-77
2022/12/22 17:10:22;;;;;;;;;;;;;;;;;;4856709;28;2000;-77
2022/12/22 17:12:49;;;;;;;;;;;;;;;;;;4859909;28;1271;-77
2022/12/22 17:15:17;;;;;;;;;;;;;;;;;;4828681;28;1543;-78
2022/12/22 17:17:45;;;;;;;;;;;;;;;;;;4847282;29;1230;-79
2022/12/22 17:20:13;;;;;;;;;;;;;;;;;;4848727;28;1202;-77
2022/12/22 17:22:39;;;;;;;;;;;;;;;;;;4950180;28;1473;-78
2022/12/22 17:25:07;;;;;;;;;;;;;;;;;;4952107;28;1454;-76
2022/12/22 17:27:33;;;;;;;;;;;;;;;;;;4951164;28;1770;-77
2022/12/22 17:30:00;;;;;;;;;;;;;;;;;;4955108;28;1939;-78
2022/12/22 17:32:26;;;;;;;;;;;;;;;;;;4952448;28;1755;-77
2022/12/22 17:34:54;;;;;;;;;;;;;;;;;;4962967;28;1463;-76
2022/12/22 17:37:21;;;;;;;;;;;;;;;;;;4974439;28;1132;-77
2022/12/22 17:39:48;;;;;;;;;;;;;;;;;;4972925;28;1299;-78
2022/12/22 17:42:15;;;;;;;;;;;;;;;;;;4964051;28;1813;-78
2022/12/22 17:44:42;;;;;;;;;;;;;;;;;;4968468;28;1398;-76
2022/12/22 17:47:09;;;;;;;;;;;;;;;;;;4955983;28;1542;-77
2022/12/22 17:49:35;;;;;;;;;;;;;;;;;;4951534;28;1980;-80
2022/12/22 17:52:03;;;;;;;;;;;;;;;;;;4933539;28;1208;-77
2022/12/22 17:54:30;;;;;;;;;;;;;;;;;;4949590;28;1763;-73
2022/12/22 17:56:57;;;;;;;;;;;;;;;;;;4963370;28;1190;-76
2022/12/22 17:59:23;;;;;;;;;;;;;;;;;;4971170;28;1105;-77
2022/12/22 18:01:50;;;;;;;;;;;;;;;;;;4962292;28;969;-76
2022/12/22 18:04:16;;;;;;;;;;;;;;;;;;4947830;28;1608;-77
2022/12/22 18:06:43;;;;;;;;;;;;;;;;;;4854669;28;1635;-78
2022/12/22 18:09:12;;;;;;;;;;;;;;;;;;4841309;28;1086;-77
2022/12/22 18:11:39;;;;;;;;;;;;;;;;;;4847081;29;1992;-78
2022/12/22 18:14:11;;;;;;;;;;;;;;;;;;4844025;28;1452;-78
2022/12/22 18:16:38;;;;;;;;;;;;;;;;;;4853007;28;1445;-78
2022/12/22 18:19:06;;;;;;;;;;;;;;;;;;4867679;28;1084;-78
2022/12/22 18:21:33;;;;;;;;;;;;;;;;;;4867092;28;1001;-78
2022/12/22 18:24:20;;;;;;;;;;;;;;;;;;4867430;28;1441;-77
2022/12/22 18:26:47;;;;;;;;;;;;;;;;;;4868551;28;1035;-78
2022/12/22 18:29:14;;;;;;;;;;;;;;;;;;4860869;28;1651;-78
2022/12/22 18:32:08;;;;;;;;;;;;;;;;;;4853140;28;1939;-78
2022/12/22 18:34:38;;;;;;;;;;;;;;;;;;4848889;28;1673;-80
2022/12/22 18:37:06;;;;;;;;;;;;;;;;;;4859707;29;1154;-78
2022/12/22 18:39:44;;;;;;;;;;;;;;;;;;4862271;29;1225;-78
2022/12/22 18:42:39;;;;;;;;;;;;;;;;;;4836852;29;1162;-79
2022/12/22 18:45:14;;;;;;;;;;;;;;;;;;4851688;29;1439;-79
2022/12/22 18:47:40;;;;;;;;;;;;;;;;;;4872726;28;1130;-76
2022/12/22 18:50:09;;;;;;;;;;;;;;;;;;4850724;29;1991;-78
2022/12/22 18:52:36;;;;;;;;;;;;;;;;;;4847616;29;1006;-78
2022/12/22 18:55:22;;;;;;;;;;;;;;;;;;4856461;28;1406;-78
2022/12/22 18:57:49;;;;;;;;;;;;;;;;;;4845401;28;1557;-77
2022/12/22 19:00:40;;;;;;;;;;;;;;;;;;4824322;29;1085;-77
2022/12/22 19:03:16;;;;;;;;;;;;;;;;;;4870354;28;1125;-81
2022/12/22 19:05:44;;;;;;;;;;;;;;;;;;4870501;28;1385;-77
2022/12/22 19:08:12;;;;;;;;;;;;;;;;;;4911291;23;3635;-75
2022/12/22 19:10:41;;;;;;;;;;;;;;;;;;4843163;29;1938;-73
2022/12/22 19:13:13;;;;;;;;;;;;;;;;;;4819371;29;1376;-74
2022/12/22 19:15:41;;;;;;;;;;;;;;;;;;4852925;29;1272;-73
2022/12/22 19:18:10;;;;;;;;;;;;;;;;;;4866462;29;1724;-74
2022/12/22 19:20:37;;;;;;;;;;;;;;;;;;4880015;28;1160;-74
2022/12/22 19:23:04;;;;;;;;;;;;;;;;;;4840810;29;1087;-74
2022/12/22 19:25:31;;;;;;;;;;;;;;;;;;4805492;29;1130;-73
2022/12/22 19:28:05;;;;;;;;;;;;;;;;;;4811860;29;1488;-74
2022/12/22 19:30:32;;;;;;;;;;;;;;;;;;4890309;28;1923;-73
2022/12/22 19:33:00;;;;;;;;;;;;;;;;;;4843305;29;1348;-75
2022/12/22 19:35:28;;;;;;;;;;;;;;;;;;4860212;29;1470;-73
2022/12/22 19:37:55;;;;;;;;;;;;;;;;;;4817277;29;1319;-74
2022/12/22 19:40:23;;;;;;;;;;;;;;;;;;4839758;29;1002;-74
2022/12/22 19:42:50;;;;;;;;;;;;;;;;;;4836680;28;1449;-74
2022/12/22 19:45:19;;;;;;;;;;;;;;;;;;4821040;29;1425;-75
2022/12/22 19:47:46;;;;;;;;;;;;;;;;;;4880807;29;1393;-74
2022/12/22 19:50:15;;;;;;;;;;;;;;;;;;4938661;28;1915;-73
2022/12/22 19:52:42;;;;;;;;;;;;;;;;;;4928948;29;1243;-73
2022/12/22 19:55:08;;;;;;;;;;;;;;;;;;4932756;29;1768;-73
2022/12/22 19:57:39;;;;;;;;;;;;;;;;;;4929311;29;1672;-73
2022/12/22 20:00:06;;;;;;;;;;;;;;;;;;4939062;29;1373;-74
2022/12/22 20:02:39;;;;;;;;;;;;;;;;;;4936603;29;1432;-73
2022/12/22 20:05:06;;;;;;;;;;;;;;;;;;4931757;29;1759;-74
2022/12/22 20:07:35;;;;;;;;;;;;;;;;;;4940942;28;1155;-73
2022/12/22 20:10:02;;;;;;;;;;;;;;;;;;4948696;28;1441;-74
2022/12/22 20:12:29;;;;;;;;;;;;;;;;;;4945979;28;1061;-75
2022/12/22 20:14:55;;;;;;;;;;;;;;;;;;4935272;28;1743;-74
2022/12/22 20:17:21;;;;;;;;;;;;;;;;;;4940376;28;1246;-74
2022/12/22 20:19:49;;;;;;;;;;;;;;;;;;4947106;28;1771;-73
2022/12/22 20:22:16;;;;;;;;;;;;;;;;;;4947600;28;1981;-73
2022/12/22 20:24:42;;;;;;;;;;;;;;;;;;4940488;29;1148;-74
2022/12/22 20:27:11;;;;;;;;;;;;;;;;;;4949581;28;791;-74
2022/12/22 20:29:38;;;;;;;;;;;;;;;;;;4889943;28;1259;-73
2022/12/22 20:32:05;;;;;;;;;;;;;;;;;;4927571;28;1724;-74
2022/12/22 20:34:31;;;;;;;;;;;;;;;;;;4936880;29;1116;-73
2022/12/22 20:36:58;;;;;;;;;;;;;;;;;;4935948;29;1265;-72
2022/12/22 20:39:25;;;;;;;;;;;;;;;;;;4931713;29;1392;-73
2022/12/22 20:41:51;;;;;;;;;;;;;;;;;;4932269;29;1918;-73
2022/12/22 20:44:17;;;;;;;;;;;;;;;;;;4931576;29;1398;-74
2022/12/22 20:46:43;;;;;;;;;;;;;;;;;;4933167;29;1191;-73
2022/12/22 20:49:10;;;;;;;;;;;;;;;;;;4933073;29;1351;-72
2022/12/22 20:51:36;;;;;;;;;;;;;;;;;;4932133;29;1150;-72
2022/12/22 20:54:04;;;;;;;;;;;;;;;;;;4933120;29;1172;-73